Time;durP1;ratioP1;P1;durP2;ratioP2;P2;SDS_P1;SDS_P2;PMS_P1;PMS_P2;Temp;Humidity;BMP_temperature;BMP_pressure;BME280_temperature;BME280_humidity;BME280_pressure;Samples;Min_cycle;Max_cycle;Signal;HPM_P1;HPM_P2
2021/12/13 00:01:05;;;;;;;8.13;3.10;;;11.50;99.90;;;;;;4977239;28;38931;-76
2021/12/13 00:03:41;;;;;;;12.03;2.93;;;11.60;99.90;;;;;;4975616;28;49781;-76
2021/12/13 00:06:16;;;;;;;4.67;2.67;;;11.50;99.90;;;;;;4981930;28;39937;-77
2021/12/13 00:08:45;;;;;;;8.67;3.17;;;11.50;99.90;;;;;;4966821;28;35909;-76
2021/12/13 00:11:19;;;;;;;9.53;3.00;;;11.50;99.90;;;;;;4973021;28;39394;-76
2021/12/13 00:13:49;;;;;;;12.93;2.80;;;11.40;99.90;;;;;;4962061;28;39393;-76
2021/12/13 00:16:26;;;;;;;10.77;3.33;;;11.40;99.90;;;;;;4978598;28;39621;-77
2021/12/13 00:18:59;;;;;;;6.77;3.37;;;11.40;99.90;;;;;;4981123;28;39565;-76
2021/12/13 00:21:30;;;;;;;;;;;11.40;99.90;;;;;;4982744;28;39090;-77
2021/12/13 00:24:02;;;;;;;8.00;2.73;;;11.40;99.90;;;;;;4984099;28;38572;-76
2021/12/13 00:26:34;;;;;;;11.27;2.70;;;11.40;99.90;;;;;;4983929;28;47246;-76
2021/12/13 00:29:12;;;;;;;9.03;3.10;;;11.50;99.90;;;;;;4983293;28;37859;-76
2021/12/13 00:31:46;;;;;;;4.63;2.50;;;11.50;99.90;;;;;;4980263;28;47432;-76
2021/12/13 00:34:54;;;;;;;7.77;3.03;;;11.50;99.90;;;;;;4980602;28;39156;-76
2021/12/13 00:37:30;;;;;;;9.17;3.03;;;11.50;99.90;;;;;;4962787;28;38538;-76
2021/12/13 00:40:04;;;;;;;10.97;2.87;;;11.50;99.90;;;;;;4971290;28;38321;-76
2021/12/13 00:43:05;;;;;;;4.90;2.80;;;11.50;99.90;;;;;;4984644;28;49078;-76
2021/12/13 00:45:34;;;;;;;7.50;2.57;;;11.60;99.90;;;;;;4983358;28;46957;-76
2021/12/13 00:48:04;;;;;;;10.53;2.90;;;11.60;99.90;;;;;;4988206;28;39002;-76
2021/12/13 00:50:46;;;;;;;7.80;3.00;;;11.60;99.90;;;;;;4968737;28;46597;-77
2021/12/13 00:53:18;;;;;;;11.10;3.03;;;11.60;99.90;;;;;;4981471;28;38596;-76
2021/12/13 00:55:45;;;;;;;4.73;2.53;;;11.60;99.90;;;;;;4976082;28;39248;-77
2021/12/13 00:58:23;;;;;;;5.57;3.20;;;11.60;99.90;;;;;;4980777;28;38124;-77
2021/12/13 01:01:06;;;;;;;6.57;3.73;;;11.60;99.90;;;;;;4984218;28;37281;-77
2021/12/13 01:03:41;;;;;;;10.85;4.97;;;11.60;99.90;;;;;;4970293;28;46839;-76
2021/12/13 01:06:41;;;;;;;13.30;4.90;;;11.60;99.90;;;;;;4974692;28;38277;-76
2021/12/13 01:09:45;;;;;;;9.77;5.20;;;11.50;99.90;;;;;;4984522;28;38243;-76
2021/12/13 01:12:17;;;;;;;12.43;5.67;;;11.50;99.90;;;;;;4958461;28;37906;-76
2021/12/13 01:15:16;;;;;;;12.73;6.32;;;11.50;99.90;;;;;;4962421;28;39149;-76
2021/12/13 01:17:59;;;;;;;12.97;6.27;;;11.50;99.90;;;;;;4970713;28;47016;-76
2021/12/13 01:21:00;;;;;;;13.20;6.87;;;11.50;99.90;;;;;;4983053;28;37036;-77
2021/12/13 01:23:46;;;;;;;18.10;8.73;;;11.50;99.90;;;;;;4979416;28;37928;-76
2021/12/13 01:28:48;;;;;;;18.20;10.23;;;11.50;99.90;;;;;;4980034;28;39106;-77
2021/12/13 01:31:18;;;;;;;16.97;11.23;;;11.40;99.90;;;;;;4971676;28;38634;-76
2021/12/13 01:33:46;;;;;;;21.07;13.00;;;11.40;99.90;;;;;;4980211;28;38272;-76
2021/12/13 01:36:20;;;;;;;20.97;13.70;;;11.40;99.90;;;;;;4969598;28;38102;-76
2021/12/13 01:38:50;;;;;;;19.47;13.33;;;11.40;99.90;;;;;;4982996;28;39463;-77
2021/12/13 01:41:20;;;;;;;17.73;11.83;;;11.40;99.90;;;;;;4977974;28;37665;-76
2021/12/13 01:43:54;;;;;;;20.57;13.90;;;11.40;99.90;;;;;;4965993;28;37312;-77
2021/12/13 01:46:23;;;;;;;17.40;13.40;;;11.40;99.90;;;;;;4966518;28;36238;-77
2021/12/13 01:48:52;;;;;;;19.37;13.90;;;11.40;99.90;;;;;;4985127;28;37372;-77
2021/12/13 01:51:25;;;;;;;22.13;13.77;;;11.40;99.90;;;;;;4984474;28;38244;-76
2021/12/13 01:54:00;;;;;;;24.37;15.80;;;11.40;99.90;;;;;;4982223;28;37847;-77
2021/12/13 01:56:40;;;;;;;21.63;15.97;;;11.40;99.90;;;;;;4969565;28;39165;-77
2021/12/13 01:59:27;;;;;;;26.70;16.23;;;11.40;99.90;;;;;;4970953;28;39215;-76
2021/12/13 02:01:56;;;;;;;25.03;16.10;;;11.40;99.90;;;;;;4991630;28;37527;-77
2021/12/13 02:04:23;;;;;;;20.10;16.73;;;11.40;99.90;;;;;;4986930;28;36327;-76
2021/12/13 02:06:51;;;;;;;26.53;16.80;;;11.40;99.90;;;;;;4977922;28;38113;-77
2021/12/13 02:09:24;;;;;;;28.00;16.23;;;11.40;99.90;;;;;;4986473;28;40498;-77
2021/12/13 02:11:55;;;;;;;20.60;16.10;;;11.40;99.90;;;;;;4976984;28;38923;-77
2021/12/13 02:14:27;;;;;;;24.07;17.27;;;11.40;99.90;;;;;;4970458;28;36385;-77
2021/12/13 02:17:00;;;;;;;22.90;16.93;;;11.40;99.90;;;;;;4987388;28;39613;-77
2021/12/13 02:19:52;;;;;;;21.33;15.10;;;11.40;99.90;;;;;;4981908;28;47455;-77
2021/12/13 02:22:38;;;;;;;25.40;16.70;;;11.40;99.90;;;;;;4984477;28;38852;-77
2021/12/13 02:25:13;;;;;;;22.50;16.07;;;11.40;99.90;;;;;;4982526;28;37611;-77
2021/12/13 02:27:44;;;;;;;22.93;16.10;;;11.40;99.90;;;;;;4975228;28;48649;-77
2021/12/13 02:30:16;;;;;;;23.23;17.07;;;11.40;99.90;;;;;;4978793;28;38969;-76
2021/12/13 02:32:44;;;;;;;21.20;15.85;;;11.40;99.90;;;;;;4980966;28;40617;-77
2021/12/13 02:35:11;;;;;;;21.87;14.90;;;11.40;99.90;;;;;;4973981;28;38017;-77
2021/12/13 02:37:40;;;;;;;20.33;16.17;;;11.40;99.90;;;;;;4987012;28;38713;-76
2021/12/13 02:40:13;;;;;;;23.17;16.40;;;11.40;99.90;;;;;;4974923;28;38854;-77
2021/12/13 02:42:40;;;;;;;23.57;15.37;;;11.40;99.90;;;;;;4980681;28;38227;-77
2021/12/13 02:45:20;;;;;;;24.83;16.07;;;11.40;99.90;;;;;;4993397;28;36771;-76
2021/12/13 02:47:53;;;;;;;23.27;15.87;;;11.40;99.90;;;;;;4967908;28;37731;-77
2021/12/13 02:50:30;;;;;;;21.17;16.15;;;11.40;99.90;;;;;;4952961;28;38856;-76
2021/12/13 02:52:58;;;;;;;19.67;15.00;;;11.40;99.90;;;;;;4972998;28;37975;-76
2021/12/13 02:55:28;;;;;;;16.10;14.00;;;11.50;99.90;;;;;;4968916;28;36370;-77
2021/12/13 02:57:58;;;;;;;19.97;15.10;;;11.40;99.90;;;;;;4987491;28;38405;-77
2021/12/13 03:00:49;;;;;;;17.90;14.37;;;11.40;99.90;;;;;;4982452;28;39719;-76
2021/12/13 03:03:21;;;;;;;18.53;13.80;;;11.40;99.90;;;;;;4983325;28;38058;-77
2021/12/13 03:05:51;;;;;;;20.48;14.70;;;11.40;99.90;;;;;;4960650;28;36900;-76
2021/12/13 03:08:29;;;;;;;18.20;14.37;;;11.40;99.90;;;;;;4970535;28;38419;-76
2021/12/13 03:11:00;;;;;;;18.87;13.07;;;11.40;99.90;;;;;;4973372;28;38916;-76
2021/12/13 03:13:29;;;;;;;16.00;13.63;;;11.40;99.90;;;;;;4971602;28;46913;-76
2021/12/13 03:16:04;;;;;;;16.07;11.47;;;11.40;99.90;;;;;;4982113;28;38491;-77
2021/12/13 03:19:10;;;;;;;15.43;12.57;;;11.40;99.90;;;;;;4961910;28;47070;-77
2021/12/13 03:22:17;;;;;;;18.20;13.00;;;11.40;99.90;;;;;;4962989;28;46052;-77
2021/12/13 03:24:50;;;;;;;16.47;12.47;;;11.40;99.90;;;;;;4981856;28;48640;-77
2021/12/13 03:27:53;;;;;;;15.60;12.10;;;11.40;99.90;;;;;;4964933;28;38358;-76
2021/12/13 03:30:36;;;;;;;16.17;11.27;;;11.40;99.90;;;;;;4978855;28;39884;-76
2021/12/13 03:33:06;;;;;;;;;;;11.30;99.90;;;;;;4970088;28;38727;-77
2021/12/13 03:35:35;;;;;;;16.23;12.30;;;11.30;99.90;;;;;;4982042;28;48802;-77
2021/12/13 03:38:07;;;;;;;15.23;11.40;;;11.40;99.90;;;;;;4964534;28;37576;-77
2021/12/13 03:40:34;;;;;;;15.77;10.93;;;11.40;99.90;;;;;;4981953;28;46911;-77
2021/12/13 03:43:06;;;;;;;15.07;12.17;;;11.30;99.90;;;;;;4963606;28;39138;-76
2021/12/13 03:45:41;;;;;;;15.27;11.13;;;11.30;99.90;;;;;;4964812;28;47014;-76
2021/12/13 03:48:09;;;;;;;13.27;11.47;;;11.30;99.90;;;;;;4976348;28;37470;-76
2021/12/13 03:50:39;;;;;;;13.20;11.07;;;11.30;99.90;;;;;;4963653;28;39222;-76
2021/12/13 03:53:15;;;;;;;15.57;11.37;;;11.30;99.90;;;;;;4985232;28;38752;-77
2021/12/13 03:55:48;;;;;;;15.53;10.80;;;11.30;99.90;;;;;;4966074;28;39889;-76
2021/12/13 03:58:18;;;;;;;12.43;11.10;;;11.30;99.90;;;;;;4958153;28;38486;-76
2021/12/13 04:00:56;;;;;;;15.70;11.53;;;11.30;99.90;;;;;;4955634;28;40749;-77
2021/12/13 04:03:24;;;;;;;14.10;12.57;;;11.30;99.90;;;;;;4971610;28;38282;-77
2021/12/13 04:05:53;;;;;;;15.77;12.83;;;11.30;99.90;;;;;;4961930;28;38542;-77
2021/12/13 04:08:21;;;;;;;18.77;13.50;;;11.30;99.90;;;;;;4974675;28;37622;-77
2021/12/13 04:10:56;;;;;;;17.70;11.70;;;11.20;99.90;;;;;;4978175;28;38869;-76
2021/12/13 04:13:27;;;;;;;15.30;10.87;;;11.30;99.90;;;;;;4976558;28;39307;-77
2021/12/13 04:16:35;;;;;;;14.83;11.40;;;11.20;99.90;;;;;;4981166;28;39003;-77
2021/12/13 04:19:12;;;;;;;16.33;10.83;;;11.30;99.90;;;;;;4914728;28;47344;-77
2021/12/13 04:21:50;;;;;;;16.17;11.00;;;11.20;99.90;;;;;;4954044;28;39492;-77
2021/12/13 04:24:49;;;;;;;16.87;11.30;;;11.20;99.90;;;;;;4972905;28;39065;-77
2021/12/13 04:27:18;;;;;;;11.53;10.33;;;11.30;99.90;;;;;;4986209;28;38668;-77
2021/12/13 04:29:46;;;;;;;12.07;10.07;;;11.20;99.90;;;;;;4981095;28;38174;-76
2021/12/13 04:32:17;;;;;;;16.13;10.40;;;11.20;99.90;;;;;;4979607;28;39896;-77
2021/12/13 04:34:44;;;;;;;14.52;10.23;;;11.30;99.90;;;;;;4984175;28;40088;-77
2021/12/13 04:37:14;;;;;;;19.80;10.57;;;11.20;99.90;;;;;;4984347;28;38199;-77
2021/12/13 04:39:44;;;;;;;14.87;10.33;;;11.30;99.90;;;;;;4988536;28;37663;-77
2021/12/13 04:42:15;;;;;;;15.90;10.83;;;11.30;99.90;;;;;;4978436;28;40722;-77
2021/12/13 04:45:05;;;;;;;16.50;11.07;;;11.30;99.90;;;;;;4989779;28;38223;-77
2021/12/13 04:47:32;;;;;;;12.60;9.53;;;11.30;99.90;;;;;;4955571;28;47223;-76
2021/12/13 04:50:08;;;;;;;15.63;9.93;;;11.30;99.90;;;;;;4985180;28;36373;-76
2021/12/13 04:52:35;;;;;;;12.80;9.60;;;11.30;99.90;;;;;;4961744;28;47262;-77
2021/12/13 04:55:07;;;;;;;16.77;11.17;;;11.30;99.90;;;;;;4964594;28;38620;-77
2021/12/13 04:57:33;;;;;;;14.75;10.10;;;11.30;99.90;;;;;;4971810;28;46697;-76
2021/12/13 05:00:06;;;;;;;14.40;10.43;;;11.30;99.90;;;;;;4961911;28;38390;-76
2021/12/13 05:02:32;;;;;;;15.30;10.37;;;11.30;99.90;;;;;;4962771;28;47092;-77
2021/12/13 05:05:02;;;;;;;17.83;10.57;;;11.30;99.90;;;;;;4965445;28;38799;-76
2021/12/13 05:07:30;;;;;;;15.77;11.07;;;11.30;99.90;;;;;;4962710;28;47944;-76
2021/12/13 05:09:57;;;;;;;14.50;10.90;;;11.30;99.90;;;;;;4962690;28;39470;-77
2021/12/13 05:12:28;;;;;;;15.37;10.83;;;11.30;99.90;;;;;;4965894;28;39456;-77
2021/12/13 05:15:01;;;;;;;17.30;10.87;;;11.30;99.90;;;;;;4969008;28;38871;-77
2021/12/13 05:17:27;;;;;;;17.50;11.57;;;11.30;99.90;;;;;;4962537;28;37492;-77
2021/12/13 05:20:20;;;;;;;15.03;11.57;;;11.30;99.90;;;;;;4968186;28;37968;-76
2021/12/13 05:22:54;;;;;;;18.47;11.93;;;11.30;99.90;;;;;;4958035;28;47341;-77
2021/12/13 05:25:33;;;;;;;16.60;12.03;;;11.30;99.90;;;;;;4964904;28;39098;-77
2021/12/13 05:28:04;;;;;;;14.83;11.77;;;11.30;99.90;;;;;;4981740;28;38241;-77
2021/12/13 05:30:32;;;;;;;19.73;12.13;;;11.30;99.90;;;;;;4965192;28;47045;-76
2021/12/13 05:33:06;;;;;;;18.50;11.83;;;11.30;99.90;;;;;;4962735;28;39538;-77
2021/12/13 05:35:48;;;;;;;19.03;12.80;;;11.30;99.90;;;;;;4968766;28;48352;-77
2021/12/13 05:38:46;;;;;;;15.68;12.20;;;11.30;99.90;;;;;;4962781;28;36623;-77
2021/12/13 05:41:25;;;;;;;15.97;12.30;;;11.30;99.90;;;;;;4973060;28;40049;-77
2021/12/13 05:43:58;;;;;;;22.00;14.27;;;11.30;99.90;;;;;;4967590;28;39768;-76
2021/12/13 05:46:40;;;;;;;19.53;13.20;;;11.30;99.90;;;;;;4977126;28;40125;-76
2021/12/13 05:49:09;;;;;;;;;;;11.30;99.90;;;;;;4964664;28;38861;-77
2021/12/13 05:51:40;;;;;;;19.57;13.87;;;11.30;99.90;;;;;;4976705;28;39497;-77
2021/12/13 05:54:24;;;;;;;23.33;13.70;;;11.20;99.90;;;;;;4976459;28;39955;-76
2021/12/13 05:57:08;;;;;;;21.43;14.87;;;11.20;99.90;;;;;;4967198;28;39340;-76
2021/12/13 05:59:39;;;;;;;23.07;16.70;;;11.20;99.90;;;;;;4977334;28;47996;-76
2021/12/13 06:02:13;;;;;;;26.37;17.43;;;11.20;99.90;;;;;;4988876;28;38406;-76
2021/12/13 06:04:56;;;;;;;23.53;16.97;;;11.30;99.90;;;;;;4987042;28;39038;-76
2021/12/13 06:07:32;;;;;;;24.30;18.17;;;11.20;99.90;;;;;;4972539;28;38283;-76
2021/12/13 06:10:15;;;;;;;27.67;18.27;;;11.30;99.90;;;;;;4958448;28;38901;-76
2021/12/13 06:12:47;;;;;;;30.00;21.07;;;11.20;99.90;;;;;;4970284;28;48120;-76
2021/12/13 06:15:16;;;;;;;26.52;20.30;;;11.20;99.90;;;;;;4980307;28;38959;-76
2021/12/13 06:17:56;;;;;;;29.90;18.37;;;11.20;99.90;;;;;;4977745;28;39805;-76
2021/12/13 06:20:47;;;;;;;31.63;21.20;;;11.20;99.90;;;;;;4963763;28;41753;-76
2021/12/13 06:23:16;;;;;;;31.97;21.27;;;11.30;99.90;;;;;;4961726;28;37593;-77
2021/12/13 06:25:45;;;;;;;31.53;19.30;;;11.30;99.90;;;;;;4979827;28;38826;-77
2021/12/13 06:28:33;;;;;;;36.80;21.03;;;11.30;99.90;;;;;;4986465;28;39487;-77
2021/12/13 06:31:07;;;;;;;33.53;21.50;;;11.20;99.90;;;;;;4977293;28;37384;-76
2021/12/13 06:33:49;;;;;;;33.23;22.30;;;11.20;99.90;;;;;;4979079;28;48296;-76
2021/12/13 06:36:29;;;;;;;35.23;20.97;;;11.20;99.90;;;;;;4967528;28;39633;-76
2021/12/13 06:39:00;;;;;;;30.40;20.47;;;11.30;99.90;;;;;;4984865;28;39150;-76
2021/12/13 06:41:26;;;;;;;28.93;18.83;;;11.30;99.90;;;;;;4971892;28;38085;-76
2021/12/13 06:44:15;;;;;;;34.80;22.07;;;11.20;99.90;;;;;;4983856;28;37338;-76
2021/12/13 06:46:59;;;;;;;34.57;23.17;;;11.30;99.90;;;;;;4979522;28;48624;-76
2021/12/13 06:49:33;;;;;;;35.67;20.80;;;11.30;99.90;;;;;;4979155;28;38319;-77
2021/12/13 06:52:13;;;;;;;31.50;20.10;;;11.20;99.90;;;;;;4986098;28;39932;-76
2021/12/13 06:54:47;;;;;;;28.13;20.23;;;11.20;99.90;;;;;;4985686;28;47166;-77
2021/12/13 06:57:21;;;;;;;29.87;19.07;;;11.30;99.90;;;;;;4975379;28;39407;-76
2021/12/13 07:00:01;;;;;;;33.03;20.97;;;11.30;99.90;;;;;;4974812;28;38904;-76
2021/12/13 07:02:39;;;;;;;31.67;19.27;;;11.30;99.90;;;;;;4973576;28;47414;-77
2021/12/13 07:05:14;;;;;;;35.07;21.30;;;11.30;99.90;;;;;;4989027;28;39282;-77
2021/12/13 07:07:59;;;;;;;32.10;22.20;;;11.30;99.90;;;;;;4982341;28;38651;-77
2021/12/13 07:10:40;;;;;;;34.30;21.07;;;11.30;99.90;;;;;;4980826;28;38468;-77
2021/12/13 07:13:22;;;;;;;32.23;21.37;;;11.30;99.90;;;;;;4967525;28;39573;-76
2021/12/13 07:15:57;;;;;;;28.17;20.63;;;11.30;99.90;;;;;;4961481;28;39135;-77
2021/12/13 07:18:37;;;;;;;36.57;21.10;;;11.30;99.90;;;;;;4955810;28;40137;-77
2021/12/13 07:21:17;;;;;;;32.47;21.07;;;11.30;99.90;;;;;;4949446;28;39079;-76
2021/12/13 07:24:13;;;;;;;30.40;20.23;;;11.30;99.90;;;;;;4967399;28;40310;-76
2021/12/13 07:26:44;;;;;;;37.83;21.10;;;11.30;99.90;;;;;;4966782;28;47453;-75
2021/12/13 07:29:11;;;;;;;32.50;21.07;;;11.30;99.90;;;;;;4960738;28;39570;-76
2021/12/13 07:31:41;;;;;;;34.90;20.80;;;11.30;99.90;;;;;;4983691;28;38777;-77
2021/12/13 07:34:16;;;;;;;30.97;21.37;;;11.30;99.90;;;;;;4971247;28;38487;-77
2021/12/13 07:36:52;;;;;;;33.87;21.47;;;11.30;99.90;;;;;;4959344;28;37930;-77
2021/12/13 07:39:19;;;;;;;33.60;19.07;;;11.30;99.90;;;;;;4966191;28;38989;-77
2021/12/13 07:41:55;;;;;;;30.60;19.30;;;11.30;99.90;;;;;;4977225;28;40261;-77
2021/12/13 07:44:41;;;;;;;26.87;18.50;;;11.30;99.90;;;;;;4967433;28;39096;-77
2021/12/13 07:47:17;;;;;;;28.90;19.20;;;11.20;99.90;;;;;;4982105;28;36308;-77
2021/12/13 07:49:47;;;;;;;28.87;19.10;;;11.20;99.90;;;;;;4970277;28;39187;-77
2021/12/13 07:52:29;;;;;;;31.23;20.10;;;11.20;99.90;;;;;;4986923;28;40277;-77
2021/12/13 07:54:56;;;;;;;26.97;18.40;;;11.20;99.90;;;;;;4973029;28;39117;-78
2021/12/13 07:57:30;;;;;;;28.37;19.33;;;11.20;99.90;;;;;;4978369;28;38797;-77
2021/12/13 07:59:57;;;;;;;30.80;20.50;;;11.20;99.90;;;;;;4971372;28;40896;-77
2021/12/13 08:02:33;;;;;;;30.27;19.03;;;11.20;99.90;;;;;;4968645;28;39769;-77
2021/12/13 08:05:12;;;;;;;28.00;18.80;;;11.20;99.90;;;;;;4990558;28;37120;-76
2021/12/13 08:07:43;;;;;;;32.20;20.17;;;11.20;99.90;;;;;;4983949;28;48937;-77
2021/12/13 08:10:17;;;;;;;30.13;18.97;;;11.20;99.90;;;;;;4985140;28;39283;-77
2021/12/13 08:12:48;;;;;;;33.20;20.20;;;11.20;99.90;;;;;;4972879;28;38471;-76
2021/12/13 08:15:17;;;;;;;27.80;19.67;;;11.20;99.90;;;;;;4975454;28;39096;-77
2021/12/13 08:17:55;;;;;;;31.03;20.47;;;11.20;99.90;;;;;;4988792;28;37169;-76
2021/12/13 08:20:26;;;;;;;29.93;18.73;;;11.20;99.90;;;;;;4982322;28;38827;-76
2021/12/13 08:22:54;;;;;;;31.37;21.13;;;11.20;99.90;;;;;;4985799;28;39382;-75
2021/12/13 08:25:26;;;;;;;30.47;21.90;;;11.20;99.90;;;;;;4965585;28;38348;-75
2021/12/13 08:27:59;;;;;;;31.15;20.23;;;11.20;99.90;;;;;;4987799;28;37569;-75
2021/12/13 08:30:42;;;;;;;32.87;20.83;;;11.20;99.90;;;;;;4970199;28;40043;-75
2021/12/13 08:33:15;;;;;;;36.60;21.10;;;11.20;99.90;;;;;;4972215;28;39862;-81
2021/12/13 08:36:11;;;;;;;34.00;20.20;;;11.20;99.90;;;;;;5007926;22;37041;-79
2021/12/13 08:38:50;;;;;;;31.57;20.10;;;11.20;99.90;;;;;;4980499;28;47295;-79
2021/12/13 08:41:28;;;;;;;28.37;19.53;;;11.20;99.90;;;;;;4984345;28;38094;-79
2021/12/13 08:44:00;;;;;;;32.07;19.67;;;11.20;99.90;;;;;;4989992;28;38549;-79
2021/12/13 08:46:57;;;;;;;31.27;20.00;;;11.20;99.90;;;;;;4980876;28;39677;-81
2021/12/13 08:49:29;;;;;;;32.20;19.03;;;11.20;99.90;;;;;;4993461;28;36698;-80
2021/12/13 08:52:13;;;;;;;33.10;18.97;;;11.30;99.90;;;;;;5002923;28;38607;-79
2021/12/13 08:54:51;;;;;;;35.37;19.77;;;11.30;99.90;;;;;;4994662;28;47061;-80
2021/12/13 08:57:50;;;;;;;29.07;19.27;;;11.30;99.90;;;;;;4996316;28;39124;-80
2021/12/13 09:00:54;;;;;;;30.87;18.90;;;11.40;99.90;;;;;;4991833;28;38265;-80
2021/12/13 09:03:24;;;;;;;30.27;19.10;;;11.40;99.90;;;;;;4946543;28;38098;-81
2021/12/13 09:06:08;;;;;;;33.70;18.83;;;11.40;99.90;;;;;;4969606;28;39425;-80
2021/12/13 09:08:40;;;;;;;29.20;19.10;;;11.40;99.90;;;;;;4997765;28;48620;-80
2021/12/13 09:11:34;;;;;;;33.47;19.50;;;11.40;99.90;;;;;;4980549;28;37863;-80
2021/12/13 09:14:20;;;;;;;24.53;17.60;;;11.40;99.90;;;;;;4999601;28;37545;-80
2021/12/13 09:17:21;;;;;;;31.73;19.70;;;11.40;99.90;;;;;;4989686;28;47100;-79
2021/12/13 09:19:47;;;;;;;30.57;20.20;;;11.40;99.90;;;;;;4979584;28;48516;-80
2021/12/13 09:22:22;;;;;;;33.40;19.67;;;11.50;99.90;;;;;;4983267;28;36488;-80
2021/12/13 09:24:58;;;;;;;30.07;19.87;;;11.50;99.90;;;;;;4996909;28;40639;-80
2021/12/13 09:27:36;;;;;;;29.83;19.03;;;11.50;99.90;;;;;;4993046;28;38236;-79
2021/12/13 09:30:25;;;;;;;33.27;19.87;;;11.50;99.90;;;;;;4978959;28;39946;-80
2021/12/13 09:32:59;;;;;;;28.43;18.50;;;11.50;99.90;;;;;;4948268;28;47147;-79
2021/12/13 09:35:44;;;;;;;31.07;16.70;;;11.60;99.90;;;;;;4951964;28;39842;-80
2021/12/13 09:38:58;;;;;;;31.93;18.03;;;11.60;99.90;;;;;;4997492;28;37256;-79
2021/12/13 09:41:33;;;;;;;26.27;17.00;;;11.70;99.90;;;;;;4903019;29;38967;-79
2021/12/13 09:44:09;;;;;;;30.23;18.70;;;11.70;99.90;;;;;;4966820;28;36250;-79
2021/12/13 09:46:41;;;;;;;28.43;18.57;;;11.70;99.90;;;;;;4989536;28;46735;-80
2021/12/13 09:49:26;;;;;;;28.65;17.80;;;11.70;99.90;;;;;;4991725;28;38536;-79
2021/12/13 09:51:58;;;;;;;28.03;17.47;;;11.70;99.90;;;;;;4983969;28;38008;-79
2021/12/13 09:54:29;;;;;;;;;;;11.80;99.90;;;;;;4999576;28;37750;-80
2021/12/13 09:56:57;;;;;;;25.40;15.90;;;11.80;99.90;;;;;;4994090;28;39396;-80
2021/12/13 09:59:33;;;;;;;30.90;17.87;;;11.80;99.90;;;;;;4981037;28;37629;-79
2021/12/13 10:02:03;;;;;;;27.10;16.90;;;11.80;99.90;;;;;;4991639;28;37850;-80
2021/12/13 10:04:39;;;;;;;21.80;15.23;;;11.80;99.90;;;;;;4995803;28;48502;-80
2021/12/13 10:07:23;;;;;;;23.53;15.70;;;11.80;99.90;;;;;;4975385;28;38756;-80
2021/12/13 10:10:05;;;;;;;24.97;15.53;;;11.80;99.90;;;;;;4994843;28;38209;-79
2021/12/13 10:12:53;;;;;;;25.90;16.42;;;11.80;99.90;;;;;;4983762;28;47220;-79
2021/12/13 10:15:28;;;;;;;25.13;16.13;;;11.80;99.90;;;;;;4978175;28;39467;-79
2021/12/13 10:18:03;;;;;;;26.53;16.37;;;11.90;99.90;;;;;;5042566;23;37595;-79
2021/12/13 10:20:36;;;;;;;24.87;14.67;;;11.90;99.90;;;;;;4972616;28;47360;-79
2021/12/13 10:23:11;;;;;;;26.87;15.77;;;11.90;99.90;;;;;;4961436;28;39190;-80
2021/12/13 10:25:41;;;;;;;23.57;15.03;;;11.90;99.90;;;;;;4959107;28;36389;-80
2021/12/13 10:28:11;;;;;;;26.87;15.63;;;11.90;99.90;;;;;;4974963;28;38376;-79
2021/12/13 10:30:42;;;;;;;24.73;15.57;;;11.90;99.90;;;;;;4971081;28;40004;-79
2021/12/13 10:33:09;;;;;;;24.67;15.20;;;11.90;99.90;;;;;;4967574;28;39171;-79
2021/12/13 10:35:39;;;;;;;24.50;15.50;;;11.80;99.90;;;;;;4962989;28;37278;-79
2021/12/13 10:38:12;;;;;;;27.90;15.83;;;11.80;99.90;;;;;;4965680;28;39872;-78
2021/12/13 10:40:48;;;;;;;23.80;15.70;;;11.90;99.90;;;;;;4972502;28;39168;-79
2021/12/13 10:43:23;;;;;;;21.67;15.07;;;11.90;99.90;;;;;;4971788;28;38934;-79
2021/12/13 10:45:54;;;;;;;26.27;15.53;;;12.00;99.90;;;;;;4971594;28;39338;-79
2021/12/13 10:48:22;;;;;;;23.70;14.77;;;12.10;99.90;;;;;;4970502;28;38942;-81
2021/12/13 10:50:54;;;;;;;20.00;13.83;;;12.10;99.90;;;;;;4969517;28;38629;-80
2021/12/13 10:53:25;;;;;;;22.35;14.60;;;12.10;99.90;;;;;;4971014;28;37863;-79
2021/12/13 10:55:56;;;;;;;25.70;14.97;;;12.10;99.90;;;;;;4968804;28;36001;-79
2021/12/13 10:58:27;;;;;;;21.93;12.87;;;12.10;99.90;;;;;;4970975;28;38930;-79
2021/12/13 11:01:07;;;;;;;26.00;14.33;;;12.10;99.90;;;;;;4969648;28;39023;-79
2021/12/13 11:03:36;;;;;;;24.03;14.70;;;12.10;99.90;;;;;;4968303;28;47375;-80
2021/12/13 11:06:04;;;;;;;27.97;15.33;;;12.10;99.90;;;;;;4971642;28;38360;-80
2021/12/13 11:08:31;;;;;;;25.80;14.43;;;12.10;99.90;;;;;;4967162;28;39505;-78
2021/12/13 11:11:19;;;;;;;23.00;14.83;;;12.20;99.90;;;;;;4985658;28;39226;-79
2021/12/13 11:13:48;;;;;;;23.00;14.27;;;12.10;99.90;;;;;;4965291;28;49182;-79
2021/12/13 11:16:21;;;;;;;22.83;14.43;;;12.10;99.90;;;;;;4967337;28;37413;-79
2021/12/13 11:18:48;;;;;;;26.60;14.93;;;12.00;99.90;;;;;;4965392;28;37475;-78
2021/12/13 11:21:30;;;;;;;22.80;14.57;;;12.00;99.90;;;;;;4961358;28;36468;-79
2021/12/13 11:23:57;;;;;;;24.40;14.73;;;11.90;99.90;;;;;;4970718;28;37302;-79
2021/12/13 11:26:29;;;;;;;24.10;13.47;;;11.90;99.90;;;;;;4974770;28;37950;-79
2021/12/13 11:28:56;;;;;;;22.70;13.57;;;11.90;99.90;;;;;;4968762;28;37708;-79
2021/12/13 11:31:29;;;;;;;22.57;13.97;;;11.90;99.90;;;;;;4972252;28;38288;-80
2021/12/13 11:34:01;;;;;;;22.67;15.20;;;11.90;99.90;;;;;;4973520;28;37752;-80
2021/12/13 11:36:55;;;;;;;22.40;13.33;;;11.90;99.90;;;;;;4977172;28;48248;-81
2021/12/13 11:42:34;;;;;;;21.40;14.33;;;12.00;99.90;;;;;;5000485;23;20055;-80
2021/12/13 11:48:45;;;;;;;24.13;13.87;;;12.00;99.90;;;;;;4983551;28;50681;-80
2021/12/13 11:52:01;;;;;;;25.43;14.13;;;12.00;99.90;;;;;;4993673;28;39209;-81
2021/12/13 11:55:20;;;;;;;20.57;12.93;;;12.10;99.90;;;;;;4994560;28;48868;-81
2021/12/13 11:58:11;;;;;;;19.60;12.97;;;12.10;99.90;;;;;;4934947;28;48547;-81
2021/12/13 12:01:14;;;;;;;23.13;13.80;;;12.10;99.90;;;;;;4995136;28;48629;-81
2021/12/13 12:07:14;;;;;;;18.02;11.68;;;12.00;99.90;;;;;;4988256;28;50820;-81
2021/12/13 12:10:20;;;;;;;17.30;12.20;;;12.10;99.90;;;;;;4987983;28;47415;-81
2021/12/13 12:13:10;;;;;;;19.23;13.43;;;12.10;99.90;;;;;;4983274;28;48525;-81
2021/12/13 12:15:41;;;;;;;21.60;13.70;;;12.10;99.90;;;;;;4986859;28;47309;-81
2021/12/13 12:18:12;;;;;;;20.33;12.30;;;12.00;99.90;;;;;;4989954;28;38591;-81
2021/12/13 12:20:50;;;;;;;17.07;11.77;;;12.00;99.90;;;;;;4993141;28;40661;-81
2021/12/13 12:23:30;;;;;;;16.93;12.37;;;12.10;99.90;;;;;;4988535;28;37634;-81
2021/12/13 12:26:00;;;;;;;20.93;14.37;;;12.10;99.90;;;;;;4970775;28;39241;-81
2021/12/13 12:28:31;;;;;;;18.63;12.53;;;12.10;99.90;;;;;;5002077;28;37570;-82
2021/12/13 12:30:59;;;;;;;17.97;11.40;;;12.10;99.90;;;;;;4988977;28;36766;-80
2021/12/13 12:33:37;;;;;;;18.90;11.97;;;12.20;99.90;;;;;;4987685;28;37934;-81
2021/12/13 12:36:40;;;;;;;18.27;10.97;;;12.20;99.90;;;;;;4979531;28;39184;-81
2021/12/13 12:39:38;;;;;;;21.20;11.50;;;12.20;99.90;;;;;;4990368;28;39435;-81
2021/12/13 12:42:25;;;;;;;19.07;12.00;;;12.10;99.90;;;;;;4984140;28;37021;-80
2021/12/13 12:45:15;;;;;;;15.03;10.47;;;12.10;99.90;;;;;;4982190;28;37734;-80
2021/12/13 12:47:50;;;;;;;18.57;11.20;;;12.10;99.90;;;;;;4974968;28;47900;-80
2021/12/13 12:50:24;;;;;;;17.37;10.87;;;12.10;99.90;;;;;;4994283;28;38459;-80
2021/12/13 12:52:55;;;;;;;17.67;10.50;;;12.10;99.90;;;;;;4981122;28;38517;-80
2021/12/13 12:55:26;;;;;;;19.00;11.57;;;12.00;99.90;;;;;;4980903;28;36565;-81
2021/12/13 12:57:52;;;;;;;17.03;10.87;;;12.10;99.90;;;;;;4989458;28;38546;-81
2021/12/13 13:00:28;;;;;;;19.47;11.27;;;12.10;99.90;;;;;;4978681;28;38772;-80
2021/12/13 13:02:57;;;;;;;18.47;11.00;;;12.00;99.90;;;;;;4971506;28;38169;-80
2021/12/13 13:05:28;;;;;;;18.60;11.00;;;12.00;99.90;;;;;;4974257;28;36597;-80
2021/12/13 13:07:54;;;;;;;19.67;11.50;;;11.90;99.90;;;;;;4985278;28;39163;-80
2021/12/13 13:13:11;;;;;;;19.33;11.33;;;11.90;99.90;;;;;;4979738;28;38708;-80
2021/12/13 13:15:45;;;;;;;17.97;11.73;;;11.90;99.90;;;;;;4995286;28;46689;-81
2021/12/13 13:18:15;;;;;;;20.57;11.30;;;11.90;99.90;;;;;;4983811;28;39299;-80
2021/12/13 13:21:03;;;;;;;18.00;11.70;;;12.00;99.90;;;;;;4982588;28;39211;-82
2021/12/13 13:23:44;;;;;;;18.83;11.57;;;11.90;99.90;;;;;;4999703;28;47411;-81
2021/12/13 13:26:12;;;;;;;16.57;11.33;;;11.80;99.90;;;;;;4978334;28;38844;-81
2021/12/13 13:28:46;;;;;;;15.97;10.87;;;11.80;99.90;;;;;;4975656;28;39142;-80
2021/12/13 13:31:15;;;;;;;27.53;12.93;;;11.80;99.90;;;;;;4987581;28;38454;-80
2021/12/13 13:34:06;;;;;;;41.17;13.40;;;11.80;99.90;;;;;;4981750;28;38366;-81